Time;durP1;ratioP1;P1;durP2;ratioP2;P2;SDS_P1;SDS_P2;PMS_P1;PMS_P2;Temp;Humidity;BMP_temperature;BMP_pressure;BME280_temperature;BME280_humidity;BME280_pressure;Samples;Min_cycle;Max_cycle;Signal;HPM_P1;HPM_P2
2022/04/22 00:01:31;;;;;;;8.40;6.77;;;;;;;-143.37;100.00;62585.38;5064894;28;20465;-74
2022/04/22 00:06:36;;;;;;;8.50;6.27;;;;;;;-143.37;100.00;62585.38;5079187;28;20508;-75
2022/04/22 00:09:11;;;;;;;8.10;7.30;;;;;;;-143.37;100.00;62585.38;5067363;28;20440;-75
2022/04/22 00:11:47;;;;;;;7.60;6.87;;;;;;;-143.37;100.00;62585.38;5044971;28;20810;-75
2022/04/22 00:14:22;;;;;;;8.37;6.90;;;;;;;-143.37;100.00;62585.38;5043998;28;20532;-75
2022/04/22 00:17:05;;;;;;;8.40;6.70;;;;;;;-143.37;100.00;62585.38;5047974;28;20449;-75
2022/04/22 00:19:41;;;;;;;7.17;6.47;;;;;;;-143.37;100.00;62585.38;5066529;28;20914;-75
2022/04/22 00:22:30;;;;;;;7.60;6.70;;;;;;;-143.37;100.00;62585.38;5058354;28;20457;-75
2022/04/22 00:25:07;;;;;;;9.63;7.40;;;;;;;-143.37;100.00;62585.38;5059661;28;20482;-75
2022/04/22 00:27:43;;;;;;;8.23;6.50;;;;;;;-143.37;100.00;62585.38;5067747;28;20940;-74
2022/04/22 00:30:19;;;;;;;7.20;6.50;;;;;;;-143.37;100.00;62585.38;5066500;28;20516;-74
2022/04/22 00:33:25;;;;;;;8.77;7.13;;;;;;;-143.37;100.00;62585.38;5068231;28;20441;-75
2022/04/22 00:36:00;;;;;;;8.60;7.00;;;;;;;-143.37;100.00;62585.38;5003475;28;20505;-75
2022/04/22 00:41:57;;;;;;;8.17;6.80;;;;;;;-143.37;100.00;62585.38;5087876;28;20505;-75
2022/04/22 00:44:32;;;;;;;7.70;6.93;;;;;;;-143.37;100.00;62585.38;5069057;28;20465;-75
2022/04/22 00:47:08;;;;;;;8.00;7.03;;;;;;;-143.37;100.00;62585.38;5045488;28;20942;-75
2022/04/22 00:49:45;;;;;;;9.00;7.47;;;;;;;-143.37;100.00;62585.38;5049498;28;20779;-75
2022/04/22 00:52:21;;;;;;;7.83;7.00;;;;;;;-143.37;100.00;62585.38;5072244;28;20564;-75
2022/04/22 00:54:56;;;;;;;8.63;7.30;;;;;;;-143.37;100.00;62585.38;5072288;28;20429;-75
2022/04/22 00:57:37;;;;;;;8.63;7.73;;;;;;;-143.37;100.00;62585.38;5062900;28;20915;-75
2022/04/22 01:00:13;;;;;;;9.37;7.73;;;;;;;-143.37;100.00;62585.38;5071768;28;20511;-75
2022/04/22 01:02:48;;;;;;;7.77;7.00;;;;;;;-143.37;100.00;62585.38;5069277;28;20785;-75
2022/04/22 01:11:13;;;;;;;9.57;7.60;;;;;;;-143.37;100.00;62585.38;5071609;28;20504;-75
2022/04/22 01:13:50;;;;;;;7.70;6.90;;;;;;;-143.37;100.00;62585.38;5070766;28;20421;-75
2022/04/22 01:16:25;;;;;;;9.20;7.50;;;;;;;-143.37;100.00;62585.38;5053115;28;20446;-75
2022/04/22 01:19:01;;;;;;;9.40;7.90;;;;;;;-143.37;100.00;62585.38;5070299;28;20428;-75
2022/04/22 01:21:39;;;;;;;9.27;8.17;;;;;;;-143.37;100.00;62585.38;5054401;28;20481;-75
2022/04/22 01:24:18;;;;;;;8.53;7.63;;;;;;;-143.37;100.00;62585.38;5054934;28;20540;-76
2022/04/22 01:26:55;;;;;;;9.07;8.17;;;;;;;-143.37;100.00;62585.38;5066886;28;20829;-75
2022/04/22 01:29:32;;;;;;;11.23;9.13;;;;;;;-143.37;100.00;62585.38;5065823;28;20495;-75
2022/04/22 01:32:10;;;;;;;10.40;8.93;;;;;;;-143.37;100.00;62585.38;5068934;28;20464;-75
2022/04/22 01:34:46;;;;;;;9.87;8.80;;;;;;;-143.37;100.00;62585.38;5069910;28;20444;-75
2022/04/22 01:37:23;;;;;;;10.50;8.50;;;;;;;-143.37;100.00;62585.38;5064640;28;20456;-75
2022/04/22 01:39:59;;;;;;;9.60;8.47;;;;;;;-143.37;100.00;62585.38;5063624;28;20846;-75
2022/04/22 01:42:34;;;;;;;9.80;8.80;;;;;;;-143.37;100.00;62585.38;5065626;28;20464;-75
2022/04/22 01:45:12;;;;;;;9.67;8.70;;;;;;;-143.37;100.00;62585.38;5068239;28;20429;-75
2022/04/22 01:47:47;;;;;;;11.07;9.90;;;;;;;-143.37;100.00;62585.38;5070095;28;20433;-75
2022/04/22 01:50:23;;;;;;;11.37;9.30;;;;;;;-143.37;100.00;62585.38;5047996;28;20752;-75
2022/04/22 01:53:01;;;;;;;10.63;9.53;;;;;;;-143.37;100.00;62585.38;5054979;28;20477;-75
2022/04/22 01:55:36;;;;;;;13.67;11.10;;;;;;;-143.37;100.00;62585.38;5063864;28;20927;-75
2022/04/22 01:58:12;;;;;;;13.67;10.43;;;;;;;-143.37;100.00;62585.38;5044978;28;20476;-75
2022/04/22 02:00:48;;;;;;;13.87;10.90;;;;;;;-143.37;100.00;62585.38;5046150;28;20453;-76
2022/04/22 02:03:45;;;;;;;11.80;10.20;;;;;;;-143.37;100.00;62585.38;5065940;28;20532;-75
2022/04/22 02:06:21;;;;;;;14.60;11.57;;;;;;;-143.37;100.00;62585.38;5062467;28;20545;-75
2022/04/22 02:08:58;;;;;;;12.87;10.50;;;;;;;-143.37;100.00;62585.38;5081406;28;20434;-75
2022/04/22 02:11:35;;;;;;;12.10;10.83;;;;;;;-143.37;100.00;62585.38;5079185;28;20855;-74
2022/04/22 02:14:11;;;;;;;14.53;11.00;;;;;;;-143.37;100.00;62585.38;5065763;28;20528;-74
2022/04/22 02:16:47;;;;;;;11.60;10.10;;;;;;;-143.37;100.00;62585.38;5049436;28;20539;-75
2022/04/22 02:19:23;;;;;;;12.60;10.00;;;;;;;-143.37;100.00;62585.38;5047103;28;20442;-75
2022/04/22 02:21:59;;;;;;;12.67;10.63;;;;;;;-143.37;100.00;62585.38;5066065;28;20549;-74
2022/04/22 02:24:36;;;;;;;11.70;10.50;;;;;;;-143.37;100.00;62585.38;5062821;28;20434;-75
2022/04/22 02:30:08;;;;;;;15.77;11.53;;;;;;;-143.37;100.00;62585.38;5048863;28;21498;-75
2022/04/22 02:32:46;;;;;;;12.40;10.10;;;;;;;-143.37;100.00;62585.38;5062853;28;20559;-74
2022/04/22 02:35:21;;;;;;;13.40;10.93;;;;;;;-143.37;100.00;62585.38;5070805;28;20565;-75
2022/04/22 02:37:57;;;;;;;16.23;12.27;;;;;;;-143.37;100.00;62585.38;5083627;28;20446;-74
2022/04/22 02:46:48;;;;;;;14.40;12.20;;;;;;;-143.37;100.00;62585.38;5027457;28;20533;-75
2022/04/22 02:49:24;;;;;;;15.37;12.60;;;;;;;-143.37;100.00;62585.38;5045528;28;20434;-75
2022/04/22 02:52:01;;;;;;;14.03;11.50;;;;;;;-143.37;100.00;62585.38;5063809;28;20588;-75
2022/04/22 02:54:36;;;;;;;13.10;11.23;;;;;;;-143.37;100.00;62585.38;5065941;28;20799;-74
2022/04/22 02:57:14;;;;;;;14.77;13.27;;;;;;;-143.37;100.00;62585.38;5062962;28;20438;-74
2022/04/22 02:59:50;;;;;;;13.40;10.80;;;;;;;-143.37;100.00;62585.38;5062724;28;20729;-75
2022/04/22 03:02:25;;;;;;;14.80;12.20;;;;;;;-143.37;100.00;62585.38;5060704;28;20438;-75
2022/04/22 03:05:01;;;;;;;15.00;12.10;;;;;;;-143.37;100.00;62585.38;5058294;28;20422;-74
2022/04/22 03:07:37;;;;;;;16.50;12.37;;;;;;;-143.37;100.00;62585.38;5064417;28;20460;-74
2022/04/22 03:10:12;;;;;;;14.67;11.93;;;;;;;-143.37;100.00;62585.38;5061101;28;20529;-75
2022/04/22 03:12:50;;;;;;;14.97;13.00;;;;;;;-143.37;100.00;62585.38;5060609;28;20548;-74
2022/04/22 03:15:26;;;;;;;15.40;12.67;;;;;;;-143.37;100.00;62585.38;5048240;28;20449;-75
2022/04/22 03:18:02;;;;;;;17.70;12.83;;;;;;;-143.37;100.00;62585.38;5066423;28;20426;-75
2022/04/22 03:20:38;;;;;;;15.47;11.50;;;;;;;-143.37;100.00;62585.38;5060662;28;20446;-75
2022/04/22 03:23:16;;;;;;;13.60;11.53;;;;;;;-143.37;100.00;62585.38;5056808;28;20850;-75
2022/04/22 03:25:54;;;;;;;15.83;13.00;;;;;;;-143.37;100.00;62585.38;5064031;28;20442;-74
2022/04/22 03:28:40;;;;;;;13.80;12.33;;;;;;;-143.37;100.00;62585.38;5051200;28;20465;-75
2022/04/22 03:31:18;;;;;;;18.17;12.70;;;;;;;-143.37;100.00;62585.38;5059184;28;20488;-75
2022/04/22 03:33:54;;;;;;;15.70;12.47;;;;;;;-143.37;100.00;62585.38;5073464;28;20872;-74
2022/04/22 03:36:30;;;;;;;14.23;12.73;;;;;;;-143.37;100.00;62585.38;5062479;28;20597;-75
2022/04/22 03:39:05;;;;;;;15.07;12.00;;;;;;;-143.37;100.00;62585.38;5066197;28;20437;-75
2022/04/22 03:41:41;;;;;;;14.93;12.20;;;;;;;-143.37;100.00;62585.38;5047943;28;20465;-75
2022/04/22 03:44:18;;;;;;;19.30;13.93;;;;;;;-143.37;100.00;62585.38;5049459;28;20431;-74
2022/04/22 03:46:53;;;;;;;14.90;12.00;;;;;;;-143.37;100.00;62585.38;5053094;28;20457;-75
2022/04/22 03:49:29;;;;;;;17.47;13.60;;;;;;;-143.37;100.00;62585.38;5034072;28;20438;-75
2022/04/22 03:52:06;;;;;;;17.87;13.70;;;;;;;-143.37;100.00;62585.38;5030976;28;20968;-74
2022/04/22 03:54:41;;;;;;;19.80;13.17;;;;;;;-143.37;100.00;62585.38;5048227;28;20453;-74
2022/04/22 04:00:19;;;;;;;18.10;14.00;;;;;;;-143.37;100.00;62585.38;5050297;28;20438;-75
2022/04/22 04:02:54;;;;;;;15.87;12.80;;;;;;;-143.37;100.00;62585.38;5053659;28;20536;-74
2022/04/22 04:05:31;;;;;;;20.50;14.57;;;;;;;-143.37;100.00;62585.38;5049221;28;20931;-75
2022/04/22 04:08:10;;;;;;;17.90;14.43;;;;;;;-143.37;100.00;62585.38;5035504;28;20618;-75
2022/04/22 04:16:33;;;;;;;19.90;15.13;;;;;;;-143.37;100.00;62585.38;5035943;28;21053;-75
2022/04/22 04:24:55;;;;;;;21.80;15.13;;;;;;;-143.37;100.00;62585.38;5047604;28;20546;-74
2022/04/22 04:27:30;;;;;;;20.50;14.90;;;;;;;-143.37;100.00;62585.38;5064454;28;20462;-74
2022/04/22 04:30:07;;;;;;;19.37;14.73;;;;;;;-143.37;100.00;62585.38;5048039;28;20433;-75
2022/04/22 04:32:46;;;;;;;18.33;15.53;;;;;;;-143.37;100.00;62585.38;5051296;28;20512;-75
2022/04/22 04:35:22;;;;;;;19.13;15.57;;;;;;;-143.37;100.00;62585.38;5055270;28;20445;-75
2022/04/22 04:38:07;;;;;;;20.90;15.57;;;;;;;-143.37;100.00;62585.38;5031691;28;20466;-75
2022/04/22 04:40:45;;;;;;;19.93;15.97;;;;;;;-143.37;100.00;62585.38;5048115;28;21081;-75
2022/04/22 04:43:21;;;;;;;24.40;16.43;;;;;;;-143.37;100.00;62585.38;5065464;28;20460;-75
2022/04/22 04:45:57;;;;;;;21.77;16.40;;;;;;;-143.37;100.00;62585.38;5050091;28;20838;-75
2022/04/22 04:48:35;;;;;;;22.80;16.93;;;;;;;-143.37;100.00;62585.38;5071846;28;21011;-75
2022/04/22 04:51:11;;;;;;;19.77;15.33;;;;;;;-143.37;100.00;62585.38;5066722;28;20452;-75
2022/04/22 04:53:46;;;;;;;22.43;16.80;;;;;;;-143.37;100.00;62585.38;5047923;28;20457;-75
2022/04/22 04:56:22;;;;;;;22.80;17.03;;;;;;;-143.37;100.00;62585.38;5068845;28;20456;-75
2022/04/22 04:58:58;;;;;;;21.83;17.40;;;;;;;-143.37;100.00;62585.38;5061165;28;20525;-75
2022/04/22 05:01:34;;;;;;;24.50;17.03;;;;;;;-143.37;100.00;62585.38;5065064;28;20449;-75
2022/04/22 05:04:13;;;;;;;21.90;16.30;;;;;;;-143.37;100.00;62585.38;5062948;28;20449;-75
2022/04/22 05:06:50;;;;;;;23.00;18.43;;;;;;;-143.37;100.00;62585.38;5063024;28;20456;-75
2022/04/22 05:09:26;;;;;;;22.17;15.70;;;;;;;-143.37;100.00;62585.38;5066867;28;20818;-75
2022/04/22 05:12:01;;;;;;;23.63;19.40;;;;;;;-143.37;100.00;62585.38;5044936;28;20882;-75
2022/04/22 05:14:38;;;;;;;25.00;18.40;;;;;;;-143.37;100.00;62585.38;5063846;28;21635;-75
2022/04/22 05:17:19;;;;;;;23.50;17.37;;;;;;;-143.37;100.00;62585.38;5081169;28;21018;-75
2022/04/22 05:19:57;;;;;;;20.90;16.57;;;;;;;-143.37;100.00;62585.38;5081524;28;20912;-74
2022/04/22 05:22:32;;;;;;;24.20;18.23;;;;;;;-143.37;100.00;62585.38;5061958;28;20477;-75
2022/04/22 05:25:11;;;;;;;26.03;17.10;;;;;;;-143.37;100.00;62585.38;5067480;28;20489;-75
2022/04/22 05:27:47;;;;;;;24.63;17.97;;;;;;;-143.37;100.00;62585.38;5060268;28;20442;-75
2022/04/22 05:33:17;;;;;;;24.40;18.30;;;;;;;-143.37;100.00;62585.38;5057223;28;20568;-74
2022/04/22 05:35:54;;;;;;;21.13;17.10;;;;;;;-143.37;100.00;62585.38;5052504;28;20876;-74
2022/04/22 05:38:30;;;;;;;20.93;16.33;;;;;;;-143.37;100.00;62585.38;5066154;28;20784;-75
2022/04/22 05:41:06;;;;;;;19.53;16.03;;;;;;;-143.37;100.00;62585.38;5079591;28;21068;-75
2022/04/22 05:44:45;;;;;;;19.97;16.33;;;;;;;-143.37;100.00;62585.38;5062766;28;20544;-75
2022/04/22 05:47:20;;;;;;;22.27;17.30;;;;;;;-143.37;100.00;62585.38;5044974;28;20449;-75
2022/04/22 05:49:56;;;;;;;22.47;17.43;;;;;;;-143.37;100.00;62585.38;5050167;28;20445;-75
2022/04/22 05:52:34;;;;;;;20.53;16.40;;;;;;;-143.37;100.00;62585.38;5067650;28;20480;-75
2022/04/22 05:55:15;;;;;;;26.60;18.80;;;;;;;-143.37;100.00;62585.38;5064720;28;20794;-75
2022/04/22 05:57:52;;;;;;;19.77;16.33;;;;;;;-143.37;100.00;62585.38;5068946;28;20457;-74
2022/04/22 06:00:30;;;;;;;21.77;16.27;;;;;;;-143.37;100.00;62585.38;5049361;28;20438;-74
2022/04/22 06:03:06;;;;;;;22.93;18.27;;;;;;;-143.37;100.00;62585.38;5053251;28;20549;-74
2022/04/22 06:05:42;;;;;;;20.73;17.87;;;;;;;-143.37;100.00;62585.38;5068602;28;20826;-75
2022/04/22 06:11:12;;;;;;;21.23;16.57;;;;;;;-143.37;100.00;62585.38;5051095;28;20606;-75
2022/04/22 06:13:48;;;;;;;19.97;15.97;;;;;;;-143.37;100.00;62585.38;5067251;28;20492;-75
2022/04/22 06:16:24;;;;;;;20.40;16.77;;;;;;;-143.37;100.00;62585.38;5066702;28;20436;-75
2022/04/22 06:19:00;;;;;;;22.43;18.30;;;;;;;-143.37;100.00;62585.38;5065549;28;20442;-75
2022/04/22 06:21:35;;;;;;;21.20;17.30;;;;;;;-143.37;100.00;62585.38;5061283;28;20529;-75
2022/04/22 06:24:12;;;;;;;24.23;17.80;;;;;;;-143.37;100.00;62585.38;5048306;28;20440;-75
2022/04/22 06:26:48;;;;;;;22.80;18.00;;;;;;;-143.37;100.00;62585.38;5059652;28;20449;-75
2022/04/22 06:29:24;;;;;;;21.97;17.40;;;;;;;-143.37;100.00;62585.38;5070456;28;20448;-74
2022/04/22 06:32:00;;;;;;;20.40;17.10;;;;;;;-143.37;100.00;62585.38;5053579;28;20866;-75
2022/04/22 06:34:36;;;;;;;21.60;16.73;;;;;;;-143.37;100.00;62585.38;5069102;28;20784;-76
2022/04/22 06:37:12;;;;;;;21.37;18.00;;;;;;;-143.37;100.00;62585.38;5066135;28;20486;-75
2022/04/22 06:45:47;;;;;;;20.43;16.77;;;;;;;-143.37;100.00;62585.38;5050091;28;20438;-75
2022/04/22 06:48:29;;;;;;;21.90;17.70;;;;;;;-143.37;100.00;62585.38;5063877;28;20481;-75
2022/04/22 06:51:06;;;;;;;21.53;18.07;;;;;;;-143.37;100.00;62585.38;5062060;28;20942;-75
2022/04/22 06:53:43;;;;;;;20.50;17.97;;;;;;;-143.37;100.00;62585.38;5062787;28;20497;-75
2022/04/22 06:56:23;;;;;;;21.20;16.83;;;;;;;-143.37;100.00;62585.38;5049140;28;20539;-75
2022/04/22 06:58:59;;;;;;;23.37;19.00;;;;;;;-143.37;100.00;62585.38;5071604;28;20445;-75
2022/04/22 07:01:36;;;;;;;21.97;16.80;;;;;;;-143.37;100.00;62585.38;5040375;28;20919;-75
2022/04/22 07:04:13;;;;;;;21.60;17.13;;;;;;;-143.37;100.00;62585.38;5059261;28;20441;-76
2022/04/22 07:06:50;;;;;;;19.50;17.30;;;;;;;-143.37;100.00;62585.38;5065450;28;20444;-75
2022/04/22 07:09:26;;;;;;;19.90;17.00;;;;;;;-143.37;100.00;62585.38;5045473;28;20444;-76
2022/04/22 07:12:11;;;;;;;22.10;18.20;;;;;;;-143.37;100.00;62585.38;5058455;28;20533;-75
2022/04/22 07:14:47;;;;;;;20.67;18.30;;;;;;;-143.37;100.00;62585.38;5060263;28;20438;-75
2022/04/22 07:17:26;;;;;;;20.37;17.60;;;;;;;-143.37;100.00;62585.38;5063921;28;20487;-75
2022/04/22 07:20:05;;;;;;;20.50;17.23;;;;;;;-143.37;100.00;62585.38;5079459;28;20531;-75
2022/04/22 07:22:42;;;;;;;19.80;16.97;;;;;;;-143.37;100.00;62585.38;5062241;28;20494;-74
2022/04/22 07:25:18;;;;;;;21.90;17.90;;;;;;;-143.37;100.00;62585.38;5059351;28;20448;-75
2022/04/22 07:27:56;;;;;;;22.30;17.03;;;;;;;-143.37;100.00;62585.38;5059482;28;20446;-75
2022/04/22 07:30:31;;;;;;;21.40;17.60;;;;;;;-143.37;100.00;62585.38;5080089;28;20936;-75
2022/04/22 07:33:08;;;;;;;19.03;17.03;;;;;;;-143.37;100.00;62585.38;5047992;28;20481;-75
2022/04/22 07:35:46;;;;;;;25.50;18.77;;;;;;;-143.37;100.00;62585.38;5064916;28;22147;-75
2022/04/22 07:38:22;;;;;;;22.80;17.60;;;;;;;-143.37;100.00;62585.38;5062538;28;21445;-77
2022/04/22 07:40:58;;;;;;;20.30;16.73;;;;;;;-143.37;100.00;62585.38;5061520;28;20791;-75
2022/04/22 07:46:48;;;;;;;21.37;19.07;;;;;;;-143.37;100.00;62585.38;5062135;28;20519;-75
2022/04/22 07:49:26;;;;;;;20.50;17.37;;;;;;;-143.37;100.00;62585.38;5069229;28;20442;-76
2022/04/22 07:52:08;;;;;;;18.70;16.00;;;;;;;-143.37;100.00;62585.38;5066148;28;20424;-75
2022/04/22 07:54:46;;;;;;;22.03;16.83;;;;;;;-143.37;100.00;62585.38;5061500;28;20968;-75
2022/04/22 07:57:22;;;;;;;22.23;18.37;;;;;;;-143.37;100.00;62585.38;5041942;28;20449;-75
2022/04/22 08:00:01;;;;;;;19.77;17.57;;;;;;;-143.37;100.00;62585.38;5062502;28;20569;-75
2022/04/22 08:02:40;;;;;;;22.27;18.90;;;;;;;-143.37;100.00;62585.38;5057622;28;20444;-76
2022/04/22 08:05:17;;;;;;;20.23;17.60;;;;;;;-143.37;100.00;62585.38;5061442;28;20426;-75
2022/04/22 08:07:53;;;;;;;22.07;18.13;;;;;;;-143.37;100.00;62585.38;5060480;28;20449;-75
2022/04/22 08:10:28;;;;;;;22.50;18.30;;;;;;;-143.37;100.00;62585.38;5060599;28;20500;-76
2022/04/22 08:13:05;;;;;;;22.17;18.30;;;;;;;-143.37;100.00;62585.38;5062549;28;20495;-75
2022/04/22 08:15:43;;;;;;;20.90;18.67;;;;;;;-143.37;100.00;62585.38;5083160;28;20445;-75
2022/04/22 08:18:19;;;;;;;22.00;19.60;;;;;;;-143.37;100.00;62585.38;5067388;28;20445;-75
2022/04/22 08:20:55;;;;;;;21.10;18.57;;;;;;;-143.37;100.00;62585.38;5061972;28;20460;-76
2022/04/22 08:23:42;;;;;;;23.20;19.20;;;;;;;-143.37;100.00;62585.38;5086903;28;20456;-75
2022/04/22 08:26:18;;;;;;;22.47;17.67;;;;;;;-143.37;100.00;62585.38;5053684;28;20800;-75
2022/04/22 08:28:54;;;;;;;24.50;19.63;;;;;;;-143.37;100.00;62585.38;5068784;28;20477;-75
2022/04/22 08:31:31;;;;;;;22.10;19.03;;;;;;;-143.37;100.00;62585.38;5054652;28;20442;-76
2022/04/22 08:34:06;;;;;;;21.00;18.03;;;;;;;-143.37;100.00;62585.38;5068822;28;20823;-76
2022/04/22 08:36:43;;;;;;;21.20;18.90;;;;;;;-143.37;100.00;62585.38;5066885;28;20449;-75
2022/04/22 08:39:19;;;;;;;23.30;17.23;;;;;;;-143.37;100.00;62585.38;5070193;28;20466;-75
2022/04/22 08:41:55;;;;;;;18.80;16.90;;;;;;;-143.37;100.00;62585.38;5054915;28;20919;-75
2022/04/22 08:44:31;;;;;;;18.13;16.23;;;;;;;-143.37;100.00;62585.38;5088510;28;20476;-75
2022/04/22 08:50:06;;;;;;;18.17;16.27;;;;;;;-143.37;100.00;62585.38;5053849;28;20507;-75
2022/04/22 08:52:43;;;;;;;21.93;18.10;;;;;;;-143.37;100.00;62585.38;5086775;28;20489;-75
2022/04/22 08:55:20;;;;;;;21.63;17.10;;;;;;;-143.37;100.00;62585.38;5065733;28;20445;-74
2022/04/22 08:57:55;;;;;;;19.30;17.30;;;;;;;-143.37;100.00;62585.38;5066093;28;21010;-74
2022/04/22 09:00:32;;;;;;;19.60;17.40;;;;;;;-143.37;100.00;62585.38;5050795;28;20441;-74
2022/04/22 09:03:10;;;;;;;21.47;19.17;;;;;;;-143.37;100.00;62585.38;5070889;28;20441;-74
2022/04/22 09:05:46;;;;;;;19.67;17.43;;;;;;;-143.37;100.00;62585.38;5045903;28;20456;-75
2022/04/22 09:08:23;;;;;;;20.40;18.13;;;;;;;-143.37;100.00;62585.38;5071608;28;20548;-74
2022/04/22 09:11:04;;;;;;;19.50;16.63;;;;;;;-143.37;100.00;62585.38;5086689;28;20440;-74
2022/04/22 09:13:39;;;;;;;19.73;16.63;;;;;;;-143.37;100.00;62585.38;5066960;28;20983;-75
2022/04/22 09:16:19;;;;;;;18.70;16.77;;;;;;;-143.37;100.00;62585.38;5055403;28;20519;-74
2022/04/22 09:19:00;;;;;;;21.33;17.80;;;;;;;-143.37;100.00;62585.38;5071294;28;20522;-76
2022/04/22 09:21:36;;;;;;;18.73;16.73;;;;;;;-143.37;100.00;62585.38;5066372;28;20469;-76
2022/04/22 09:24:14;;;;;;;20.10;16.57;;;;;;;-143.37;100.00;62585.38;5057075;28;20847;-75
2022/04/22 09:27:03;;;;;;;19.67;17.03;;;;;;;-143.37;100.00;62585.38;5052006;28;20441;-75
2022/04/22 09:29:43;;;;;;;18.50;16.50;;;;;;;-143.37;100.00;62585.38;5072504;28;20457;-74
2022/04/22 09:32:24;;;;;;;17.83;16.03;;;;;;;-143.37;100.00;62585.38;5066898;28;20432;-74
2022/04/22 09:35:08;;;;;;;19.60;17.10;;;;;;;-143.37;100.00;62585.38;5069080;28;20461;-75
2022/04/22 09:43:37;;;;;;;19.47;16.90;;;;;;;-143.37;100.00;62585.38;5069198;28;20442;-75
2022/04/22 09:46:22;;;;;;;17.20;15.20;;;;;;;-143.37;100.00;62585.38;5069793;28;20946;-75
2022/04/22 09:48:59;;;;;;;19.33;17.23;;;;;;;-143.37;100.00;62585.38;5057930;28;20445;-75
2022/04/22 09:51:36;;;;;;;17.63;15.60;;;;;;;-143.37;100.00;62585.38;5049595;28;20449;-75
2022/04/22 09:54:14;;;;;;;25.67;17.87;;;;;;;-143.37;100.00;62585.38;5064714;28;20472;-75
2022/04/22 09:56:55;;;;;;;19.43;16.90;;;;;;;-143.37;100.00;62585.38;5063201;28;20436;-75
2022/04/22 09:59:32;;;;;;;22.30;15.57;;;;;;;-143.37;100.00;62585.38;5071882;28;20827;-76
2022/04/22 10:02:11;;;;;;;18.90;15.50;;;;;;;-143.37;100.00;62585.38;5063519;28;20838;-75
2022/04/22 10:04:47;;;;;;;19.20;16.90;;;;;;;-143.37;100.00;62585.38;5064384;28;20528;-75
2022/04/22 10:07:27;;;;;;;20.50;16.60;;;;;;;-143.37;100.00;62585.38;5052750;28;20450;-75
2022/04/22 10:10:04;;;;;;;18.80;16.90;;;;;;;-143.37;100.00;62585.38;5065265;28;20444;-75
2022/04/22 10:12:40;;;;;;;19.57;16.30;;;;;;;-143.37;100.00;62585.38;5047661;28;20440;-75
2022/04/22 10:15:19;;;;;;;17.87;15.30;;;;;;;-143.37;100.00;62585.38;5053101;28;20803;-75
2022/04/22 10:17:55;;;;;;;17.67;15.80;;;;;;;-143.37;100.00;62585.38;5066270;28;20449;-75
2022/04/22 10:20:33;;;;;;;17.83;15.93;;;;;;;-143.37;100.00;62585.38;5049920;28;20440;-75
2022/04/22 10:23:10;;;;;;;17.57;15.77;;;;;;;-143.37;100.00;62585.38;5068931;28;20855;-75
2022/04/22 10:25:47;;;;;;;18.10;16.30;;;;;;;-143.37;100.00;62585.38;5051905;28;20429;-75
2022/04/22 10:28:24;;;;;;;21.03;16.67;;;;;;;-143.37;100.00;62585.38;5069070;28;20584;-75
2022/04/22 10:31:02;;;;;;;17.23;15.23;;;;;;;-143.37;100.00;62585.38;5042081;28;20426;-76
2022/04/22 10:33:42;;;;;;;22.27;17.03;;;;;;;-143.37;100.00;62585.38;5065454;28;20816;-75
2022/04/22 10:36:18;;;;;;;16.87;15.00;;;;;;;-143.37;100.00;62585.38;5067559;28;20516;-75
2022/04/22 10:38:58;;;;;;;18.33;15.37;;;;;;;-143.37;100.00;62585.38;5067354;28;20544;-75
2022/04/22 10:41:44;;;;;;;20.93;16.47;;;;;;;-143.37;100.00;62585.38;5053306;28;20469;-75
2022/04/22 10:47:16;;;;;;;16.50;14.23;;;;;;;-143.37;100.00;62585.38;5068347;28;20449;-74
2022/04/22 10:49:53;;;;;;;18.00;16.17;;;;;;;-143.37;100.00;62585.38;5061777;28;20486;-75
2022/04/22 10:52:30;;;;;;;16.63;14.20;;;;;;;-143.37;100.00;62585.38;5063282;28;20445;-75
2022/04/22 10:55:15;;;;;;;19.87;17.10;;;;;;;-143.37;100.00;62585.38;5062169;28;20546;-75
2022/04/22 10:58:21;;;;;;;18.93;15.07;;;;;;;-143.37;100.00;62585.38;5069638;28;20438;-75
2022/04/22 11:00:58;;;;;;;16.20;14.50;;;;;;;-143.37;100.00;62585.38;5050965;28;20476;-75
2022/04/22 11:03:35;;;;;;;17.97;16.07;;;;;;;-143.37;100.00;62585.38;5053998;28;20449;-75
2022/04/22 11:06:13;;;;;;;19.57;16.40;;;;;;;-143.37;100.00;62585.38;5055934;28;20540;-75
2022/04/22 11:08:59;;;;;;;16.30;14.67;;;;;;;-143.37;100.00;62585.38;5051397;28;20869;-75
2022/04/22 11:11:41;;;;;;;14.83;13.40;;;;;;;-143.37;100.00;62585.38;5066804;28;20453;-75
2022/04/22 11:14:21;;;;;;;16.60;14.87;;;;;;;-143.37;100.00;62585.38;5066484;28;20794;-75
2022/04/22 11:17:34;;;;;;;17.30;15.50;;;;;;;-143.37;100.00;62585.38;5065856;28;20433;-75
2022/04/22 11:20:11;;;;;;;16.13;14.50;;;;;;;-143.37;100.00;62585.38;5044119;28;20444;-75
2022/04/22 11:22:54;;;;;;;18.33;16.40;;;;;;;-143.37;100.00;62585.38;5065871;28;20441;-75
2022/04/22 11:25:30;;;;;;;17.50;15.70;;;;;;;-143.37;100.00;62585.38;5057100;28;20449;-75
2022/04/22 11:28:08;;;;;;;18.10;16.20;;;;;;;-143.37;100.00;62585.38;5071311;28;20444;-75
2022/04/22 11:30:46;;;;;;;17.87;15.60;;;;;;;-143.37;100.00;62585.38;5042821;28;20444;-75
2022/04/22 11:33:24;;;;;;;16.80;14.67;;;;;;;-143.37;100.00;62585.38;5053799;28;20441;-75
2022/04/22 11:36:05;;;;;;;15.47;13.93;;;;;;;-143.37;100.00;62585.38;5052232;28;20473;-75
2022/04/22 11:38:48;;;;;;;16.93;15.23;;;;;;;-143.37;100.00;62585.38;5052069;28;20952;-75
2022/04/22 11:41:23;;;;;;;16.97;15.13;;;;;;;-143.37;100.00;62585.38;5051552;28;20546;-75
2022/04/22 11:44:05;;;;;;;17.13;15.33;;;;;;;-143.37;100.00;62585.38;5052341;28;20457;-75
2022/04/22 11:46:43;;;;;;;16.50;14.80;;;;;;;-143.37;100.00;62585.38;5065951;28;21014;-75
2022/04/22 11:49:19;;;;;;;19.17;17.07;;;;;;;-143.37;100.00;62585.38;5065085;28;20532;-75
2022/04/22 11:51:55;;;;;;;16.50;14.67;;;;;;;-143.37;100.00;62585.38;5066453;28;20433;-75
2022/04/22 11:54:31;;;;;;;15.83;14.13;;;;;;;-143.37;100.00;62585.38;5067260;28;20477;-75
2022/04/22 11:57:07;;;;;;;18.87;16.63;;;;;;;-143.37;100.00;62585.38;5063189;28;20429;-75
2022/04/22 12:05:31;;;;;;;17.03;15.33;;;;;;;-143.37;100.00;62585.38;5065453;28;20923;-75
2022/04/22 12:05:48;;;;;;;16.07;14.33;;;;;;;-143.37;100.00;62585.38;5054905;28;20426;-74
2022/04/22 12:08:25;;;;;;;18.50;15.17;;;;;;;-143.37;100.00;62585.38;5070778;28;20454;-74
2022/04/22 12:11:01;;;;;;;16.13;14.43;;;;;;;-143.37;100.00;62585.38;5067593;28;20491;-74
2022/04/22 12:13:41;;;;;;;16.97;14.43;;;;;;;-143.37;100.00;62585.38;5070204;28;21878;-75
2022/04/22 12:16:22;;;;;;;18.60;15.63;;;;;;;-143.37;100.00;62585.38;5067032;28;20429;-75
2022/04/22 12:18:59;;;;;;;15.90;14.30;;;;;;;-143.37;100.00;62585.38;5051126;28;20461;-74
2022/04/22 12:21:35;;;;;;;16.97;15.20;;;;;;;-143.37;100.00;62585.38;5050760;28;20453;-74
2022/04/22 12:24:16;;;;;;;18.33;16.43;;;;;;;-143.37;100.00;62585.38;5064927;28;20445;-75
2022/04/22 12:26:52;;;;;;;16.20;14.50;;;;;;;-143.37;100.00;62585.38;5069683;28;20428;-75
2022/04/22 12:29:28;;;;;;;15.50;13.60;;;;;;;-143.37;100.00;62585.38;5066628;28;20451;-75
2022/04/22 12:32:05;;;;;;;15.40;13.90;;;;;;;-143.37;100.00;62585.38;5052509;28;20509;-75
2022/04/22 12:34:41;;;;;;;16.83;14.60;;;;;;;-143.37;100.00;62585.38;5065403;28;20979;-75
2022/04/22 12:37:17;;;;;;;18.80;14.23;;;;;;;-143.37;100.00;62585.38;5052125;28;20441;-75
2022/04/22 12:39:52;;;;;;;15.50;13.90;;;;;;;-143.37;100.00;62585.38;5070069;28;20513;-74
2022/04/22 12:42:29;;;;;;;17.17;15.37;;;;;;;-143.37;100.00;62585.38;5050541;28;20469;-74
2022/04/22 12:54:13;;;;;;;13.73;12.33;;;;;;;-143.37;100.00;62585.38;5053583;28;20786;-74
2022/04/22 12:56:55;;;;;;;13.87;12.43;;;;;;;-143.37;100.00;62585.38;5063579;28;20437;-74
2022/04/22 12:59:40;;;;;;;14.00;12.60;;;;;;;-143.37;100.00;62585.38;5069121;28;20449;-74